sensor_id;sensor_type;location;lat;lon;timestamp;pressure;altitude;pressure_sealevel;temperature;humidity
14089;BME280;7120;52.890;6.040;2024-01-16T00:00:28;100625.38;;;1.32;100.00
14089;BME280;7120;52.890;6.040;2024-01-16T00:02:53;100625.31;;;1.27;100.00
14089;BME280;7120;52.890;6.040;2024-01-16T00:05:18;100623.78;;;1.14;100.00
14089;BME280;7120;52.890;6.040;2024-01-16T00:07:44;100621.31;;;0.96;100.00
14089;BME280;7120;52.890;6.040;2024-01-16T00:10:09;100632.72;;;0.86;100.00
14089;BME280;7120;52.890;6.040;2024-01-16T00:12:35;100629.53;;;0.89;100.00
14089;BME280;7120;52.890;6.040;2024-01-16T00:15:00;100631.97;;;0.91;100.00
14089;BME280;7120;52.890;6.040;2024-01-16T00:17:25;100633.03;;;0.73;100.00
14089;BME280;7120;52.890;6.040;2024-01-16T00:19:51;100631.31;;;0.83;100.00
14089;BME280;7120;52.890;6.040;2024-01-16T00:22:16;100629.59;;;0.77;100.00
14089;BME280;7120;52.890;6.040;2024-01-16T00:24:42;100641.53;;;0.81;100.00
14089;BME280;7120;52.890;6.040;2024-01-16T00:27:07;100637.91;;;0.76;100.00
14089;BME280;7120;52.890;6.040;2024-01-16T00:29:32;100641.22;;;0.78;100.00
14089;BME280;7120;52.890;6.040;2024-01-16T00:31:58;100642.03;;;0.78;100.00
14089;BME280;7120;52.890;6.040;2024-01-16T00:34:23;100637.59;;;0.72;100.00
14089;BME280;7120;52.890;6.040;2024-01-16T00:36:48;100632.13;;;0.84;100.00
14089;BME280;7120;52.890;6.040;2024-01-16T00:39:14;100632.53;;;0.76;100.00
14089;BME280;7120;52.890;6.040;2024-01-16T00:41:39;100640.28;;;0.72;100.00
14089;BME280;7120;52.890;6.040;2024-01-16T00:44:04;100648.25;;;0.67;100.00
14089;BME280;7120;52.890;6.040;2024-01-16T00:46:30;100640.84;;;0.58;100.00
14089;BME280;7120;52.890;6.040;2024-01-16T00:48:55;100642.03;;;0.50;100.00
14089;BME280;7120;52.890;6.040;2024-01-16T00:51:21;100645.88;;;0.54;100.00
14089;BME280;7120;52.890;6.040;2024-01-16T00:53:46;100636.16;;;0.53;100.00
14089;BME280;7120;52.890;6.040;2024-01-16T00:56:12;100638.84;;;0.53;100.00
14089;BME280;7120;52.890;6.040;2024-01-16T00:58:40;100639.91;;;0.52;100.00
14089;BME280;7120;52.890;6.040;2024-01-16T01:01:05;100646.22;;;0.58;100.00
14089;BME280;7120;52.890;6.040;2024-01-16T01:03:30;100636.59;;;0.62;100.00
14089;BME280;7120;52.890;6.040;2024-01-16T01:05:56;100634.72;;;0.62;100.00
14089;BME280;7120;52.890;6.040;2024-01-16T01:08:21;100635.22;;;0.59;100.00
14089;BME280;7120;52.890;6.040;2024-01-16T01:10:47;100632.06;;;0.79;100.00
14089;BME280;7120;52.890;6.040;2024-01-16T01:13:12;100630.59;;;0.71;100.00
14089;BME280;7120;52.890;6.040;2024-01-16T01:15:38;100639.13;;;0.68;100.00
14089;BME280;7120;52.890;6.040;2024-01-16T01:18:04;100636.78;;;0.72;100.00
14089;BME280;7120;52.890;6.040;2024-01-16T01:20:31;100635.38;;;0.69;100.00
14089;BME280;7120;52.890;6.040;2024-01-16T01:22:56;100641.09;;;0.73;100.00
14089;BME280;7120;52.890;6.040;2024-01-16T01:25:22;100641.81;;;0.68;100.00
14089;BME280;7120;52.890;6.040;2024-01-16T01:27:47;100639.94;;;0.69;100.00
14089;BME280;7120;52.890;6.040;2024-01-16T01:30:12;100637.84;;;0.71;100.00
14089;BME280;7120;52.890;6.040;2024-01-16T01:32:38;100640.75;;;0.69;100.00
14089;BME280;7120;52.890;6.040;2024-01-16T01:35:05;100644.06;;;0.71;100.00
14089;BME280;7120;52.890;6.040;2024-01-16T01:37:30;100633.50;;;0.70;100.00
14089;BME280;7120;52.890;6.040;2024-01-16T01:39:55;100634.25;;;0.82;100.00
14089;BME280;7120;52.890;6.040;2024-01-16T01:42:21;100641.78;;;0.80;100.00
14089;BME280;7120;52.890;6.040;2024-01-16T01:44:47;100650.66;;;0.80;100.00
14089;BME280;7120;52.890;6.040;2024-01-16T01:47:13;100649.75;;;0.75;100.00
14089;BME280;7120;52.890;6.040;2024-01-16T01:49:38;100651.13;;;0.77;100.00
14089;BME280;7120;52.890;6.040;2024-01-16T01:52:04;100648.78;;;0.81;100.00
14089;BME280;7120;52.890;6.040;2024-01-16T01:54:32;100643.16;;;0.82;100.00
14089;BME280;7120;52.890;6.040;2024-01-16T01:56:59;100647.47;;;0.83;100.00
14089;BME280;7120;52.890;6.040;2024-01-16T01:59:24;100643.81;;;0.73;100.00
14089;BME280;7120;52.890;6.040;2024-01-16T02:01:52;100653.59;;;0.79;100.00
14089;BME280;7120;52.890;6.040;2024-01-16T02:04:19;100649.09;;;0.85;100.00
14089;BME280;7120;52.890;6.040;2024-01-16T02:06:44;100654.97;;;0.81;100.00
14089;BME280;7120;52.890;6.040;2024-01-16T02:09:10;100647.88;;;0.75;100.00
14089;BME280;7120;52.890;6.040;2024-01-16T02:11:41;100645.19;;;0.75;100.00
14089;BME280;7120;52.890;6.040;2024-01-16T02:14:06;100663.41;;;0.85;100.00
14089;BME280;7120;52.890;6.040;2024-01-16T02:16:36;100675.16;;;0.96;100.00
14089;BME280;7120;52.890;6.040;2024-01-16T02:19:03;100688.72;;;1.01;100.00
14089;BME280;7120;52.890;6.040;2024-01-16T02:21:53;100682.94;;;1.09;100.00
14089;BME280;7120;52.890;6.040;2024-01-16T02:24:17;100665.06;;;1.20;100.00
14089;BME280;7120;52.890;6.040;2024-01-16T02:26:44;100658.22;;;1.29;100.00
14089;BME280;7120;52.890;6.040;2024-01-16T02:29:09;100652.91;;;1.34;100.00
14089;BME280;7120;52.890;6.040;2024-01-16T02:31:35;100650.38;;;1.27;100.00
14089;BME280;7120;52.890;6.040;2024-01-16T02:34:01;100648.97;;;1.25;100.00
14089;BME280;7120;52.890;6.040;2024-01-16T02:36:28;100649.63;;;1.15;100.00
14089;BME280;7120;52.890;6.040;2024-01-16T02:38:56;100653.31;;;1.26;100.00
14089;BME280;7120;52.890;6.040;2024-01-16T02:41:21;100651.19;;;1.11;100.00
14089;BME280;7120;52.890;6.040;2024-01-16T02:43:47;100649.06;;;1.30;100.00
14089;BME280;7120;52.890;6.040;2024-01-16T02:46:13;100648.25;;;1.29;100.00
14089;BME280;7120;52.890;6.040;2024-01-16T02:48:39;100649.97;;;1.19;100.00
14089;BME280;7120;52.890;6.040;2024-01-16T02:51:05;100649.31;;;1.28;100.00
14089;BME280;7120;52.890;6.040;2024-01-16T02:53:31;100646.28;;;1.25;100.00
14089;BME280;7120;52.890;6.040;2024-01-16T02:55:57;100646.44;;;1.18;100.00
14089;BME280;7120;52.890;6.040;2024-01-16T02:58:27;100642.28;;;1.10;100.00
14089;BME280;7120;52.890;6.040;2024-01-16T03:00:52;100649.63;;;1.15;100.00
14089;BME280;7120;52.890;6.040;2024-01-16T03:03:18;100648.88;;;1.20;100.00
14089;BME280;7120;52.890;6.040;2024-01-16T03:05:44;100654.53;;;1.18;100.00
14089;BME280;7120;52.890;6.040;2024-01-16T03:08:09;100640.44;;;1.28;100.00
14089;BME280;7120;52.890;6.040;2024-01-16T03:10:35;100648.88;;;1.20;100.00
14089;BME280;7120;52.890;6.040;2024-01-16T03:13:01;100646.13;;;1.31;100.00
14089;BME280;7120;52.890;6.040;2024-01-16T03:15:26;100651.53;;;1.15;100.00
14089;BME280;7120;52.890;6.040;2024-01-16T03:17:52;100649.22;;;1.23;100.00
14089;BME280;7120;52.890;6.040;2024-01-16T03:20:17;100649.47;;;1.22;100.00
14089;BME280;7120;52.890;6.040;2024-01-16T03:22:43;100646.38;;;1.13;100.00
14089;BME280;7120;52.890;6.040;2024-01-16T03:25:10;100642.44;;;1.04;100.00
14089;BME280;7120;52.890;6.040;2024-01-16T03:27:37;100646.19;;;1.03;100.00
14089;BME280;7120;52.890;6.040;2024-01-16T03:30:03;100645.72;;;1.06;100.00
14089;BME280;7120;52.890;6.040;2024-01-16T03:32:28;100650.94;;;1.13;100.00
14089;BME280;7120;52.890;6.040;2024-01-16T03:34:56;100649.00;;;1.08;100.00
14089;BME280;7120;52.890;6.040;2024-01-16T03:37:22;100652.72;;;0.90;100.00
14089;BME280;7120;52.890;6.040;2024-01-16T03:39:47;100652.13;;;0.88;100.00
14089;BME280;7120;52.890;6.040;2024-01-16T03:42:15;100652.38;;;0.87;100.00
14089;BME280;7120;52.890;6.040;2024-01-16T03:44:40;100649.44;;;0.88;100.00
14089;BME280;7120;52.890;6.040;2024-01-16T03:47:06;100651.13;;;0.77;100.00
14089;BME280;7120;52.890;6.040;2024-01-16T03:49:32;100652.53;;;0.80;100.00
14089;BME280;7120;52.890;6.040;2024-01-16T03:51:58;100657.41;;;0.66;100.00
14089;BME280;7120;52.890;6.040;2024-01-16T03:54:23;100650.25;;;0.72;100.00
14089;BME280;7120;52.890;6.040;2024-01-16T03:56:48;100659.38;;;0.71;100.00
14089;BME280;7120;52.890;6.040;2024-01-16T03:59:14;100652.44;;;0.75;100.00
14089;BME280;7120;52.890;6.040;2024-01-16T04:01:39;100657.97;;;0.68;100.00
14089;BME280;7120;52.890;6.040;2024-01-16T04:04:04;100650.97;;;0.67;100.00
14089;BME280;7120;52.890;6.040;2024-01-16T04:06:32;100651.91;;;0.61;100.00
14089;BME280;7120;52.890;6.040;2024-01-16T04:08:58;100656.16;;;0.57;100.00
14089;BME280;7120;52.890;6.040;2024-01-16T04:11:23;100655.34;;;0.57;100.00
14089;BME280;7120;52.890;6.040;2024-01-16T04:13:51;100645.81;;;0.66;100.00
14089;BME280;7120;52.890;6.040;2024-01-16T04:16:17;100640.63;;;0.76;100.00
14089;BME280;7120;52.890;6.040;2024-01-16T04:18:43;100649.94;;;0.85;100.00
14089;BME280;7120;52.890;6.040;2024-01-16T04:21:09;100638.44;;;0.90;100.00
14089;BME280;7120;52.890;6.040;2024-01-16T04:23:34;100636.03;;;0.76;100.00
14089;BME280;7120;52.890;6.040;2024-01-16T04:26:00;100638.53;;;0.78;100.00
14089;BME280;7120;52.890;6.040;2024-01-16T04:28:25;100636.97;;;0.82;100.00
14089;BME280;7120;52.890;6.040;2024-01-16T04:30:51;100643.72;;;0.85;100.00
14089;BME280;7120;52.890;6.040;2024-01-16T04:33:16;100644.88;;;0.89;100.00
14089;BME280;7120;52.890;6.040;2024-01-16T04:35:41;100632.63;;;0.81;100.00
14089;BME280;7120;52.890;6.040;2024-01-16T04:38:07;100638.16;;;0.74;100.00
14089;BME280;7120;52.890;6.040;2024-01-16T04:40:33;100638.84;;;0.81;100.00
14089;BME280;7120;52.890;6.040;2024-01-16T04:42:59;100641.28;;;0.83;100.00
14089;BME280;7120;52.890;6.040;2024-01-16T04:45:24;100641.44;;;0.76;100.00
14089;BME280;7120;52.890;6.040;2024-01-16T04:47:49;100635.19;;;0.88;100.00
14089;BME280;7120;52.890;6.040;2024-01-16T04:50:15;100638.19;;;0.91;100.00
14089;BME280;7120;52.890;6.040;2024-01-16T04:52:40;100626.78;;;1.01;100.00
14089;BME280;7120;52.890;6.040;2024-01-16T04:55:06;100628.91;;;0.99;100.00
14089;BME280;7120;52.890;6.040;2024-01-16T04:57:32;100627.59;;;1.01;100.00
14089;BME280;7120;52.890;6.040;2024-01-16T04:59:58;100623.34;;;1.05;100.00
14089;BME280;7120;52.890;6.040;2024-01-16T05:02:23;100634.47;;;1.09;100.00
14089;BME280;7120;52.890;6.040;2024-01-16T05:04:49;100627.19;;;1.26;100.00
14089;BME280;7120;52.890;6.040;2024-01-16T05:07:14;100631.03;;;1.30;100.00
14089;BME280;7120;52.890;6.040;2024-01-16T05:09:40;100636.16;;;1.32;100.00
14089;BME280;7120;52.890;6.040;2024-01-16T05:12:05;100630.94;;;1.42;100.00
14089;BME280;7120;52.890;6.040;2024-01-16T05:14:31;100626.63;;;1.41;100.00
14089;BME280;7120;52.890;6.040;2024-01-16T05:16:56;100627.50;;;1.47;100.00
14089;BME280;7120;52.890;6.040;2024-01-16T05:19:21;100624.16;;;1.56;100.00
14089;BME280;7120;52.890;6.040;2024-01-16T05:21:47;100625.13;;;1.50;100.00
14089;BME280;7120;52.890;6.040;2024-01-16T05:24:12;100623.50;;;1.49;100.00
14089;BME280;7120;52.890;6.040;2024-01-16T05:26:37;100613.22;;;1.46;100.00
14089;BME280;7120;52.890;6.040;2024-01-16T05:29:03;100617.13;;;1.38;100.00
14089;BME280;7120;52.890;6.040;2024-01-16T05:31:28;100609.28;;;1.54;100.00
14089;BME280;7120;52.890;6.040;2024-01-16T05:33:53;100601.97;;;1.32;100.00
14089;BME280;7120;52.890;6.040;2024-01-16T05:36:19;100607.13;;;1.34;100.00
14089;BME280;7120;52.890;6.040;2024-01-16T05:38:44;100605.81;;;1.36;100.00
14089;BME280;7120;52.890;6.040;2024-01-16T05:41:09;100600.19;;;1.21;100.00
14089;BME280;7120;52.890;6.040;2024-01-16T05:43:35;100600.66;;;1.18;100.00
14089;BME280;7120;52.890;6.040;2024-01-16T05:46:00;100607.03;;;0.95;100.00
14089;BME280;7120;52.890;6.040;2024-01-16T05:48:26;100597.97;;;1.01;100.00
14089;BME280;7120;52.890;6.040;2024-01-16T05:50:51;100609.06;;;1.05;100.00
14089;BME280;7120;52.890;6.040;2024-01-16T05:53:16;100604.09;;;0.97;100.00
14089;BME280;7120;52.890;6.040;2024-01-16T05:55:42;100601.91;;;0.94;100.00
14089;BME280;7120;52.890;6.040;2024-01-16T05:58:07;100598.97;;;0.95;100.00
14089;BME280;7120;52.890;6.040;2024-01-16T06:00:32;100601.31;;;1.08;100.00
14089;BME280;7120;52.890;6.040;2024-01-16T06:02:59;100604.69;;;1.16;100.00
14089;BME280;7120;52.890;6.040;2024-01-16T06:05:24;100603.94;;;0.87;100.00
14089;BME280;7120;52.890;6.040;2024-01-16T06:07:50;100600.34;;;0.98;100.00
14089;BME280;7120;52.890;6.040;2024-01-16T06:10:15;100608.66;;;0.96;100.00
14089;BME280;7120;52.890;6.040;2024-01-16T06:12:41;100607.84;;;0.96;100.00
14089;BME280;7120;52.890;6.040;2024-01-16T06:15:07;100608.09;;;1.11;100.00
14089;BME280;7120;52.890;6.040;2024-01-16T06:17:36;100610.97;;;1.21;100.00
14089;BME280;7120;52.890;6.040;2024-01-16T06:20:02;100620.91;;;1.21;100.00
14089;BME280;7120;52.890;6.040;2024-01-16T06:22:27;100615.75;;;1.19;100.00
14089;BME280;7120;52.890;6.040;2024-01-16T06:24:53;100622.22;;;1.18;100.00
14089;BME280;7120;52.890;6.040;2024-01-16T06:27:18;100615.75;;;1.19;100.00
14089;BME280;7120;52.890;6.040;2024-01-16T06:29:46;100619.91;;;1.44;100.00
14089;BME280;7120;52.890;6.040;2024-01-16T06:32:11;100621.78;;;1.43;100.00
14089;BME280;7120;52.890;6.040;2024-01-16T06:34:37;100616.81;;;1.35;100.00
14089;BME280;7120;52.890;6.040;2024-01-16T06:37:03;100620.47;;;1.46;100.00
14089;BME280;7120;52.890;6.040;2024-01-16T06:39:28;100618.03;;;1.44;100.00
14089;BME280;7120;52.890;6.040;2024-01-16T06:41:53;100626.75;;;1.51;100.00
14089;BME280;7120;52.890;6.040;2024-01-16T06:44:19;100624.06;;;1.51;100.00
14089;BME280;7120;52.890;6.040;2024-01-16T06:46:44;100618.97;;;1.55;100.00
14089;BME280;7120;52.890;6.040;2024-01-16T06:49:10;100624.63;;;1.53;100.00
14089;BME280;7120;52.890;6.040;2024-01-16T06:51:35;100622.09;;;1.63;100.00
14089;BME280;7120;52.890;6.040;2024-01-16T06:54:00;100617.69;;;1.41;100.00
14089;BME280;7120;52.890;6.040;2024-01-16T06:56:26;100622.19;;;1.52;100.00
14089;BME280;7120;52.890;6.040;2024-01-16T06:58:51;100617.88;;;1.51;100.00
14089;BME280;7120;52.890;6.040;2024-01-16T07:01:18;100613.50;;;1.67;100.00
14089;BME280;7120;52.890;6.040;2024-01-16T07:03:43;100616.38;;;1.60;100.00
14089;BME280;7120;52.890;6.040;2024-01-16T07:06:08;100619.16;;;1.65;100.00
14089;BME280;7120;52.890;6.040;2024-01-16T07:08:34;100621.97;;;1.75;100.00
14089;BME280;7120;52.890;6.040;2024-01-16T07:11:00;100625.19;;;1.72;100.00
14089;BME280;7120;52.890;6.040;2024-01-16T07:13:25;100633.81;;;1.74;100.00
14089;BME280;7120;52.890;6.040;2024-01-16T07:15:50;100642.25;;;1.78;100.00
14089;BME280;7120;52.890;6.040;2024-01-16T07:18:16;100654.47;;;1.85;100.00
14089;BME280;7120;52.890;6.040;2024-01-16T07:20:41;100658.91;;;1.75;100.00
14089;BME280;7120;52.890;6.040;2024-01-16T07:23:06;100645.13;;;1.93;100.00
14089;BME280;7120;52.890;6.040;2024-01-16T07:25:32;100634.34;;;1.93;100.00
14089;BME280;7120;52.890;6.040;2024-01-16T07:27:57;100644.06;;;1.94;100.00
14089;BME280;7120;52.890;6.040;2024-01-16T07:30:22;100639.13;;;1.86;100.00
14089;BME280;7120;52.890;6.040;2024-01-16T07:32:48;100647.03;;;1.92;100.00
14089;BME280;7120;52.890;6.040;2024-01-16T07:35:13;100644.31;;;1.92;100.00
14089;BME280;7120;52.890;6.040;2024-01-16T07:37:39;100649.81;;;1.81;100.00
14089;BME280;7120;52.890;6.040;2024-01-16T07:40:05;100635.53;;;1.80;100.00
14089;BME280;7120;52.890;6.040;2024-01-16T07:42:35;100632.91;;;1.85;100.00
14089;BME280;7120;52.890;6.040;2024-01-16T07:45:01;100635.34;;;1.87;100.00
14089;BME280;7120;52.890;6.040;2024-01-16T07:47:32;100642.66;;;1.70;100.00
14089;BME280;7120;52.890;6.040;2024-01-16T07:49:58;100639.59;;;1.83;100.00
14089;BME280;7120;52.890;6.040;2024-01-16T07:52:23;100647.63;;;1.78;100.00
14089;BME280;7120;52.890;6.040;2024-01-16T07:54:49;100652.22;;;1.77;100.00
14089;BME280;7120;52.890;6.040;2024-01-16T07:57:14;100655.31;;;1.69;100.00
14089;BME280;7120;52.890;6.040;2024-01-16T07:59:40;100651.34;;;1.93;100.00
14089;BME280;7120;52.890;6.040;2024-01-16T08:02:06;100658.00;;;1.69;100.00
14089;BME280;7120;52.890;6.040;2024-01-16T08:04:31;100654.00;;;1.72;100.00
14089;BME280;7120;52.890;6.040;2024-01-16T08:06:57;100657.44;;;1.67;100.00
14089;BME280;7120;52.890;6.040;2024-01-16T08:09:22;100663.22;;;1.76;100.00
14089;BME280;7120;52.890;6.040;2024-01-16T08:11:48;100664.88;;;1.77;100.00
14089;BME280;7120;52.890;6.040;2024-01-16T08:14:13;100660.03;;;1.79;100.00
14089;BME280;7120;52.890;6.040;2024-01-16T08:16:38;100668.78;;;1.86;100.00
14089;BME280;7120;52.890;6.040;2024-01-16T08:19:04;100670.72;;;1.90;100.00
14089;BME280;7120;52.890;6.040;2024-01-16T08:21:29;100671.84;;;1.95;100.00
14089;BME280;7120;52.890;6.040;2024-01-16T08:23:54;100681.25;;;1.92;100.00
14089;BME280;7120;52.890;6.040;2024-01-16T08:26:19;100685.41;;;2.00;100.00
14089;BME280;7120;52.890;6.040;2024-01-16T08:28:45;100683.88;;;1.87;100.00
14089;BME280;7120;52.890;6.040;2024-01-16T08:31:10;100680.94;;;1.88;100.00
14089;BME280;7120;52.890;6.040;2024-01-16T08:33:36;100677.19;;;2.11;100.00
14089;BME280;7120;52.890;6.040;2024-01-16T08:36:02;100682.78;;;2.05;100.00
14089;BME280;7120;52.890;6.040;2024-01-16T08:38:28;100672.38;;;2.13;100.00
14089;BME280;7120;52.890;6.040;2024-01-16T08:40:53;100669.16;;;2.16;100.00
14089;BME280;7120;52.890;6.040;2024-01-16T08:43:18;100670.78;;;2.39;100.00
14089;BME280;7120;52.890;6.040;2024-01-16T08:45:44;100664.34;;;2.40;100.00
14089;BME280;7120;52.890;6.040;2024-01-16T08:48:09;100667.06;;;2.67;100.00
14089;BME280;7120;52.890;6.040;2024-01-16T08:50:34;100655.09;;;2.85;100.00
14089;BME280;7120;52.890;6.040;2024-01-16T08:53:00;100657.25;;;2.83;100.00
14089;BME280;7120;52.890;6.040;2024-01-16T08:55:26;100651.13;;;2.66;100.00
14089;BME280;7120;52.890;6.040;2024-01-16T08:57:51;100647.66;;;2.70;100.00
14089;BME280;7120;52.890;6.040;2024-01-16T09:00:16;100657.19;;;2.78;100.00
14089;BME280;7120;52.890;6.040;2024-01-16T09:02:42;100657.03;;;2.90;100.00
14089;BME280;7120;52.890;6.040;2024-01-16T09:05:07;100649.63;;;2.80;100.00
14089;BME280;7120;52.890;6.040;2024-01-16T09:07:33;100652.53;;;2.73;100.00
14089;BME280;7120;52.890;6.040;2024-01-16T09:09:58;100650.72;;;2.79;100.00
14089;BME280;7120;52.890;6.040;2024-01-16T09:12:23;100648.94;;;2.90;100.00
14089;BME280;7120;52.890;6.040;2024-01-16T09:14:49;100650.50;;;2.86;100.00
14089;BME280;7120;52.890;6.040;2024-01-16T09:17:14;100644.50;;;2.79;100.00
14089;BME280;7120;52.890;6.040;2024-01-16T09:19:40;100647.41;;;2.72;100.00
14089;BME280;7120;52.890;6.040;2024-01-16T09:22:05;100656.22;;;2.89;100.00
14089;BME280;7120;52.890;6.040;2024-01-16T09:24:30;100648.00;;;2.79;100.00
14089;BME280;7120;52.890;6.040;2024-01-16T09:26:56;100653.84;;;3.25;100.00
14089;BME280;7120;52.890;6.040;2024-01-16T09:29:23;100641.53;;;3.44;100.00
14089;BME280;7120;52.890;6.040;2024-01-16T09:31:49;100641.44;;;3.29;100.00
14089;BME280;7120;52.890;6.040;2024-01-16T09:34:15;100643.41;;;3.39;100.00
14089;BME280;7120;52.890;6.040;2024-01-16T09:36:40;100641.53;;;3.44;100.00
14089;BME280;7120;52.890;6.040;2024-01-16T09:39:06;100652.38;;;3.49;100.00
14089;BME280;7120;52.890;6.040;2024-01-16T09:41:37;100649.47;;;3.19;100.00
14089;BME280;7120;52.890;6.040;2024-01-16T09:44:03;100652.38;;;3.12;100.00
14089;BME280;7120;52.890;6.040;2024-01-16T09:46:30;100658.16;;;2.94;100.00
14089;BME280;7120;52.890;6.040;2024-01-16T09:48:56;100662.13;;;3.13;100.00
14089;BME280;7120;52.890;6.040;2024-01-16T09:51:25;100663.06;;;3.02;100.00
14089;BME280;7120;52.890;6.040;2024-01-16T09:53:51;100663.13;;;3.07;100.00
14089;BME280;7120;52.890;6.040;2024-01-16T09:56:23;100669.81;;;2.72;100.00
14089;BME280;7120;52.890;6.040;2024-01-16T09:58:57;100657.19;;;2.78;100.00
14089;BME280;7120;52.890;6.040;2024-01-16T10:01:26;100667.94;;;3.00;100.00
14089;BME280;7120;52.890;6.040;2024-01-16T10:03:52;100659.94;;;2.83;100.00
14089;BME280;7120;52.890;6.040;2024-01-16T10:06:20;100664.81;;;2.86;100.00
14089;BME280;7120;52.890;6.040;2024-01-16T10:08:46;100664.78;;;2.81;100.00
14089;BME280;7120;52.890;6.040;2024-01-16T10:11:11;100670.16;;;2.81;100.00
14089;BME280;7120;52.890;6.040;2024-01-16T10:13:37;100656.56;;;2.98;100.00
14089;BME280;7120;52.890;6.040;2024-01-16T10:16:03;100655.91;;;2.86;100.00
14089;BME280;7120;52.890;6.040;2024-01-16T10:18:29;100651.38;;;2.64;100.00
14089;BME280;7120;52.890;6.040;2024-01-16T10:20:59;100649.84;;;2.73;100.00
14089;BME280;7120;52.890;6.040;2024-01-16T10:23:25;100649.53;;;2.43;100.00
14089;BME280;7120;52.890;6.040;2024-01-16T10:26:11;100650.97;;;2.51;100.00
14089;BME280;7120;52.890;6.040;2024-01-16T10:28:38;100657.97;;;2.52;100.00
14089;BME280;7120;52.890;6.040;2024-01-16T10:31:05;100652.94;;;2.33;100.00
14089;BME280;7120;52.890;6.040;2024-01-16T10:33:30;100652.78;;;2.23;100.00
14089;BME280;7120;52.890;6.040;2024-01-16T10:36:12;100650.97;;;2.07;100.00
14089;BME280;7120;52.890;6.040;2024-01-16T10:38:39;100643.53;;;2.14;100.00
14089;BME280;7120;52.890;6.040;2024-01-16T10:41:12;100643.16;;;2.05;100.00
14089;BME280;7120;52.890;6.040;2024-01-16T10:43:43;100649.72;;;2.14;100.00
14089;BME280;7120;52.890;6.040;2024-01-16T10:46:13;100643.16;;;2.05;100.00
14089;BME280;7120;52.890;6.040;2024-01-16T10:48:41;100648.53;;;2.05;100.00
14089;BME280;7120;52.890;6.040;2024-01-16T10:51:07;100647.28;;;2.13;100.00
14089;BME280;7120;52.890;6.040;2024-01-16T10:53:34;100643.53;;;2.14;100.00
14089;BME280;7120;52.890;6.040;2024-01-16T10:56:01;100638.56;;;2.28;100.00
14089;BME280;7120;52.890;6.040;2024-01-16T10:58:30;100644.00;;;2.11;100.00
14089;BME280;7120;52.890;6.040;2024-01-16T11:00:57;100639.56;;;2.00;100.00
14089;BME280;7120;52.890;6.040;2024-01-16T11:03:31;100631.03;;;1.86;100.00
14089;BME280;7120;52.890;6.040;2024-01-16T11:06:00;100629.69;;;2.32;100.00
14089;BME280;7120;52.890;6.040;2024-01-16T11:08:27;100628.25;;;2.25;100.00
14089;BME280;7120;52.890;6.040;2024-01-16T11:10:57;100627.50;;;2.29;100.00
14089;BME280;7120;52.890;6.040;2024-01-16T11:13:23;100629.81;;;2.42;100.00
14089;BME280;7120;52.890;6.040;2024-01-16T11:15:49;100618.91;;;2.59;100.00
14089;BME280;7120;52.890;6.040;2024-01-16T11:18:16;100616.84;;;2.66;100.00
14089;BME280;7120;52.890;6.040;2024-01-16T11:20:42;100614.75;;;2.73;100.00
14089;BME280;7120;52.890;6.040;2024-01-16T11:23:09;100615.88;;;2.78;100.00
14089;BME280;7120;52.890;6.040;2024-01-16T11:25:35;100612.16;;;2.84;100.00
14089;BME280;7120;52.890;6.040;2024-01-16T11:28:11;100610.88;;;2.91;100.00
14089;BME280;7120;52.890;6.040;2024-01-16T11:30:37;100605.94;;;2.83;100.00
14089;BME280;7120;52.890;6.040;2024-01-16T11:33:03;100615.19;;;2.92;100.00
14089;BME280;7120;52.890;6.040;2024-01-16T11:35:33;100598.72;;;3.26;100.00
14089;BME280;7120;52.890;6.040;2024-01-16T11:38:17;100606.66;;;3.43;100.00
14089;BME280;7120;52.890;6.040;2024-01-16T11:40:45;100589.84;;;2.98;100.00
14089;BME280;7120;52.890;6.040;2024-01-16T11:43:35;100583.44;;;3.05;100.00
14089;BME280;7120;52.890;6.040;2024-01-16T11:46:08;100582.31;;;2.68;100.00
14089;BME280;7120;52.890;6.040;2024-01-16T11:48:34;100578.28;;;2.71;100.00
14089;BME280;7120;52.890;6.040;2024-01-16T11:51:00;100577.81;;;2.79;100.00
14089;BME280;7120;52.890;6.040;2024-01-16T11:53:32;100575.56;;;2.71;100.00
14089;BME280;7120;52.890;6.040;2024-01-16T12:01:50;100572.06;;;2.43;100.00
14089;BME280;7120;52.890;6.040;2024-01-16T12:04:17;100567.53;;;2.49;100.00
14089;BME280;7120;52.890;6.040;2024-01-16T12:06:56;100564.06;;;2.54;100.00
14089;BME280;7120;52.890;6.040;2024-01-16T12:09:22;100562.69;;;2.51;100.00
14089;BME280;7120;52.890;6.040;2024-01-16T12:11:59;100559.31;;;2.66;100.00
14089;BME280;7120;52.890;6.040;2024-01-16T12:14:26;100551.81;;;2.41;100.00
14089;BME280;7120;52.890;6.040;2024-01-16T12:16:52;100550.47;;;2.43;100.00
14089;BME280;7120;52.890;6.040;2024-01-16T12:19:17;100550.53;;;2.48;100.00
14089;BME280;7120;52.890;6.040;2024-01-16T12:21:44;100550.41;;;2.65;100.00
14089;BME280;7120;52.890;6.040;2024-01-16T12:24:11;100548.72;;;2.27;100.00
14089;BME280;7120;52.890;6.040;2024-01-16T12:26:37;100547.56;;;2.23;100.00
14089;BME280;7120;52.890;6.040;2024-01-16T12:29:02;100546.41;;;2.68;100.00
14089;BME280;7120;52.890;6.040;2024-01-16T12:31:29;100541.63;;;2.48;100.00
14089;BME280;7120;52.890;6.040;2024-01-16T12:34:14;100538.13;;;2.47;100.00
14089;BME280;7120;52.890;6.040;2024-01-16T12:36:40;100530.50;;;2.71;100.00
14089;BME280;7120;52.890;6.040;2024-01-16T12:39:06;100542.31;;;2.97;100.00
14089;BME280;7120;52.890;6.040;2024-01-16T12:41:37;100533.63;;;2.95;100.00
14089;BME280;7120;52.890;6.040;2024-01-16T12:44:06;100530.56;;;3.19;100.00
14089;BME280;7120;52.890;6.040;2024-01-16T12:46:31;100517.59;;;3.21;100.00
14089;BME280;7120;52.890;6.040;2024-01-16T12:49:03;100530.03;;;3.22;100.00
14089;BME280;7120;52.890;6.040;2024-01-16T12:51:31;100530.97;;;3.43;100.00
14089;BME280;7120;52.890;6.040;2024-01-16T12:54:17;100524.78;;;3.47;100.00
14089;BME280;7120;52.890;6.040;2024-01-16T12:56:43;100532.59;;;3.44;100.00
14089;BME280;7120;52.890;6.040;2024-01-16T12:59:10;100515.19;;;3.19;100.00
14089;BME280;7120;52.890;6.040;2024-01-16T13:01:43;100509.63;;;3.41;100.00